createdAt,value
2022-12-29T00:01:07.492Z,64.05
2022-12-29T00:03:34.211Z,64.13
2022-12-29T00:06:01.904Z,64.17
2022-12-29T00:08:40.982Z,63.77
2022-12-29T00:11:16.563Z,63.72
2022-12-29T00:14:01.804Z,64.12
2022-12-29T00:16:29.162Z,63.89
2022-12-29T00:18:55.811Z,64.22
2022-12-29T00:21:43.112Z,63.75
2022-12-29T00:24:28.421Z,64.17
2022-12-29T00:27:32.193Z,64.00
2022-12-29T00:30:18.548Z,63.50
2022-12-29T00:33:03.696Z,63.83
2022-12-29T00:35:34.985Z,63.74
2022-12-29T00:38:25.092Z,63.77
2022-12-29T00:41:10.203Z,63.95
2022-12-29T00:43:55.296Z,63.54
2022-12-29T00:46:21.986Z,63.99
2022-12-29T00:49:07.782Z,63.81
2022-12-29T00:51:34.347Z,63.60
2022-12-29T00:54:00.873Z,63.97
2022-12-29T00:56:27.470Z,64.13
2022-12-29T00:58:54.016Z,64.22
2022-12-29T01:01:20.556Z,64.30
2022-12-29T01:03:47.158Z,64.17
2022-12-29T01:06:13.875Z,64.36
2022-12-29T01:08:40.764Z,64.54
2022-12-29T01:11:10.777Z,64.59
2022-12-29T01:13:42.182Z,64.54
2022-12-29T01:16:08.929Z,64.85
2022-12-29T01:18:35.485Z,64.64
2022-12-29T01:21:04.338Z,64.71
2022-12-29T01:23:32.509Z,64.95
2022-12-29T01:26:10.308Z,65.41
2022-12-29T01:28:36.848Z,65.21
2022-12-29T01:31:03.325Z,65.21
2022-12-29T01:33:29.912Z,64.93
2022-12-29T01:36:00.472Z,64.77
2022-12-29T01:38:27.083Z,65.24
2022-12-29T01:40:53.617Z,64.77
2022-12-29T01:43:20.492Z,64.87
2022-12-29T01:45:52.435Z,65.37
2022-12-29T01:48:20.742Z,65.15
2022-12-29T01:50:52.132Z,64.83
2022-12-29T01:53:24.005Z,65.07
2022-12-29T01:55:55.300Z,65.15
2022-12-29T01:58:25.472Z,64.94
2022-12-29T02:00:52.420Z,64.79
2022-12-29T02:03:22.004Z,64.66
2022-12-29T02:05:58.829Z,64.64
2022-12-29T02:08:28.798Z,64.58
2022-12-29T02:10:57.665Z,64.68
2022-12-29T02:13:26.218Z,64.82
2022-12-29T02:15:52.688Z,64.76
2022-12-29T02:18:32.159Z,64.56
2022-12-29T02:21:17.530Z,64.44
2022-12-29T02:24:17.545Z,64.55
2022-12-29T02:27:00.947Z,64.33
2022-12-29T02:29:43.911Z,64.38
2022-12-29T02:32:22.618Z,64.15
2022-12-29T02:35:02.162Z,64.07
2022-12-29T02:38:06.276Z,64.11
2022-12-29T02:40:44.281Z,63.95
2022-12-29T02:43:44.130Z,64.12
2022-12-29T02:46:39.079Z,64.01
2022-12-29T02:49:15.018Z,63.85
2022-12-29T02:52:21.066Z,64.02
2022-12-29T02:54:50.052Z,63.43
2022-12-29T02:57:31.222Z,63.88
2022-12-29T03:00:08.562Z,63.49
2022-12-29T03:02:49.943Z,63.25
2022-12-29T03:05:22.431Z,63.63
2022-12-29T03:08:16.701Z,63.41
2022-12-29T03:10:59.018Z,63.46
2022-12-29T03:14:09.208Z,63.53
2022-12-29T03:17:05.627Z,63.58
2022-12-29T03:19:37.351Z,63.53
2022-12-29T03:22:27.633Z,63.26
2022-12-29T03:25:30.997Z,63.63
2022-12-29T03:28:12.373Z,63.60
2022-12-29T03:30:46.014Z,63.47
2022-12-29T03:33:18.079Z,63.60
2022-12-29T03:35:48.878Z,63.58
2022-12-29T03:38:22.188Z,63.22
2022-12-29T03:40:53.666Z,63.43
2022-12-29T03:43:20.933Z,63.02
2022-12-29T03:45:49.206Z,62.98
2022-12-29T03:48:15.870Z,63.34
2022-12-29T03:50:44.714Z,63.40
2022-12-29T03:53:11.298Z,63.11
2022-12-29T03:55:39.325Z,63.39
2022-12-29T03:58:06.488Z,63.30
2022-12-29T04:00:48.432Z,63.24
2022-12-29T04:03:14.994Z,63.10
2022-12-29T04:05:41.827Z,63.31
2022-12-29T04:08:08.708Z,62.92
2022-12-29T04:10:35.348Z,63.06
2022-12-29T04:13:04.587Z,63.03
2022-12-29T04:15:31.619Z,63.19
2022-12-29T04:17:59.732Z,62.72
2022-12-29T04:20:45.454Z,63.01
2022-12-29T04:23:12.733Z,62.78
2022-12-29T04:25:39.343Z,62.94
2022-12-29T04:28:09.041Z,62.79
2022-12-29T04:30:41.796Z,62.70
2022-12-29T04:33:15.680Z,63.13
2022-12-29T04:35:44.611Z,62.80
2022-12-29T04:38:11.901Z,63.12
2022-12-29T04:40:43.212Z,63.05
2022-12-29T04:43:11.556Z,63.02
2022-12-29T04:45:59.912Z,62.82
2022-12-29T04:48:36.383Z,62.92
2022-12-29T04:51:21.217Z,62.67
2022-12-29T04:53:47.826Z,62.63
2022-12-29T04:56:14.487Z,62.62
2022-12-29T04:58:41.143Z,62.50
2022-12-29T05:01:07.798Z,62.93
2022-12-29T05:03:34.853Z,62.54
2022-12-29T05:06:01.556Z,62.55
2022-12-29T05:08:28.749Z,62.23
2022-12-29T05:10:58.652Z,62.35
2022-12-29T05:13:25.379Z,62.41
2022-12-29T05:15:53.908Z,62.24
2022-12-29T05:18:22.681Z,62.23
2022-12-29T05:20:49.794Z,62.05
2022-12-29T05:23:17.982Z,61.99
2022-12-29T05:25:49.815Z,61.93
2022-12-29T05:28:20.481Z,61.83
2022-12-29T05:30:56.168Z,62.38
2022-12-29T05:33:22.749Z,61.76
2022-12-29T05:35:50.826Z,61.93
2022-12-29T05:38:18.607Z,62.21
2022-12-29T05:40:45.960Z,61.91
2022-12-29T05:43:41.743Z,61.92
2022-12-29T05:46:28.539Z,62.12
2022-12-29T05:49:07.527Z,61.77
2022-12-29T05:52:12.466Z,62.20
2022-12-29T05:54:39.111Z,62.27
2022-12-29T05:57:11.864Z,61.84
2022-12-29T05:59:39.750Z,62.14
2022-12-29T06:02:06.582Z,62.01
2022-12-29T06:04:33.953Z,62.23
2022-12-29T06:07:00.621Z,61.91
2022-12-29T06:09:41.891Z,61.67
2022-12-29T06:12:09.437Z,61.54
2022-12-29T06:14:37.187Z,61.77
2022-12-29T06:17:04.884Z,61.42
2022-12-29T06:19:33.610Z,61.25
2022-12-29T06:22:00.135Z,61.18
2022-12-29T06:24:28.373Z,61.20
2022-12-29T06:26:55.161Z,61.13
2022-12-29T06:29:21.896Z,61.19
2022-12-29T06:31:49.737Z,61.32
2022-12-29T06:34:16.599Z,60.69
2022-12-29T06:36:43.204Z,60.86
2022-12-29T06:39:11.578Z,60.60
2022-12-29T06:41:38.849Z,60.66
2022-12-29T06:44:34.488Z,60.62
2022-12-29T06:47:03.099Z,60.60
2022-12-29T06:49:29.607Z,60.74
2022-12-29T06:51:56.216Z,60.59
2022-12-29T06:54:22.742Z,60.34
2022-12-29T06:56:49.339Z,59.94
2022-12-29T06:59:15.814Z,60.27
2022-12-29T07:01:42.471Z,59.85
2022-12-29T07:04:09.040Z,59.80
2022-12-29T07:06:35.649Z,59.50
2022-12-29T07:09:02.183Z,59.89
2022-12-29T07:11:28.825Z,59.20
2022-12-29T07:13:55.426Z,59.13
2022-12-29T07:16:22.096Z,59.36
2022-12-29T07:18:48.675Z,59.08
2022-12-29T07:21:15.298Z,59.49
2022-12-29T07:23:42.013Z,59.55
2022-12-29T07:26:11.312Z,59.18
2022-12-29T07:28:39.055Z,59.34
2022-12-29T07:31:07.211Z,59.32
2022-12-29T07:33:34.346Z,59.16
2022-12-29T07:36:01.123Z,59.17
2022-12-29T07:38:27.747Z,59.25
2022-12-29T07:40:58.033Z,58.82
2022-12-29T07:43:24.624Z,59.13
2022-12-29T07:46:54.219Z,58.98
2022-12-29T07:49:03.588Z,58.88
2022-12-29T07:51:30.174Z,58.88
2022-12-29T07:53:56.886Z,58.19
2022-12-29T07:56:23.385Z,58.35
2022-12-29T07:58:50.200Z,58.13
2022-12-29T08:01:17.015Z,58.28
2022-12-29T08:03:44.699Z,58.06
2022-12-29T08:06:12.439Z,58.21
2022-12-29T08:08:39.247Z,57.84
2022-12-29T08:11:07.889Z,57.87
2022-12-29T08:13:35.010Z,58.20
2022-12-29T08:16:01.601Z,58.16
2022-12-29T08:18:28.288Z,58.05
2022-12-29T08:20:55.887Z,58.01
2022-12-29T08:23:22.572Z,57.86
2022-12-29T08:26:01.310Z,57.83
2022-12-29T08:28:28.466Z,57.94
2022-12-29T08:31:11.074Z,57.91
2022-12-29T08:33:37.848Z,58.11
2022-12-29T08:36:07.139Z,57.92
2022-12-29T08:38:34.271Z,57.52
2022-12-29T08:41:03.881Z,57.62
2022-12-29T08:43:31.584Z,57.54
2022-12-29T08:45:59.712Z,57.34
2022-12-29T08:48:26.927Z,57.44
2022-12-29T08:50:53.743Z,57.30
2022-12-29T08:53:20.272Z,57.04
2022-12-29T08:55:47.789Z,57.21
2022-12-29T08:58:17.481Z,57.44
2022-12-29T09:00:44.639Z,57.08
2022-12-29T09:03:12.096Z,57.05
2022-12-29T09:05:38.754Z,56.97
2022-12-29T09:08:05.505Z,57.01
2022-12-29T09:10:33.163Z,56.64
2022-12-29T09:12:59.729Z,56.71
2022-12-29T09:15:26.242Z,56.79
2022-12-29T09:17:53.137Z,56.72
2022-12-29T09:20:20.684Z,56.40
2022-12-29T09:22:48.093Z,56.63
2022-12-29T09:25:15.723Z,56.30
2022-12-29T09:27:42.500Z,56.52
2022-12-29T09:30:13.096Z,56.39
2022-12-29T09:32:44.890Z,56.01
2022-12-29T09:35:12.823Z,56.28
2022-12-29T09:37:39.370Z,56.45
2022-12-29T09:40:07.340Z,55.89
2022-12-29T09:42:42.018Z,56.04
2022-12-29T09:45:20.114Z,56.38
2022-12-29T09:47:47.893Z,56.19
2022-12-29T09:50:20.243Z,55.89
2022-12-29T09:52:56.268Z,56.32
2022-12-29T09:55:26.850Z,56.25
2022-12-29T09:58:22.296Z,56.05
2022-12-29T10:00:55.198Z,56.23
2022-12-29T10:03:25.194Z,56.44
2022-12-29T10:06:04.678Z,56.25
2022-12-29T10:08:55.929Z,56.40
2022-12-29T10:11:47.028Z,56.39
2022-12-29T10:14:23.763Z,56.52
2022-12-29T10:17:15.719Z,56.48
2022-12-29T10:20:11.655Z,56.45
2022-12-29T10:22:43.947Z,56.41
2022-12-29T10:25:19.323Z,56.88
2022-12-29T10:27:48.876Z,56.89
2022-12-29T10:30:16.813Z,56.96
2022-12-29T10:33:07.189Z,57.25
2022-12-29T10:35:41.391Z,57.24
2022-12-29T10:38:29.824Z,57.27
2022-12-29T10:41:14.897Z,57.62
2022-12-29T10:43:54.016Z,57.73
2022-12-29T10:46:36.456Z,57.73
2022-12-29T10:49:04.097Z,57.65
2022-12-29T10:51:36.476Z,57.95
2022-12-29T10:54:13.977Z,57.83
2022-12-29T10:56:45.910Z,58.06
2022-12-29T10:59:28.950Z,58.29
2022-12-29T11:02:10.764Z,58.40
2022-12-29T11:04:56.857Z,58.20
2022-12-29T11:07:27.006Z,58.22
2022-12-29T11:09:54.914Z,58.31
2022-12-29T11:12:30.752Z,58.42
2022-12-29T11:15:09.664Z,58.90
2022-12-29T11:17:45.778Z,58.86
2022-12-29T11:20:27.098Z,59.07
2022-12-29T11:22:53.750Z,58.77
2022-12-29T11:25:20.315Z,59.13
2022-12-29T11:28:22.279Z,58.77
2022-12-29T11:31:00.472Z,58.96
2022-12-29T11:33:29.895Z,59.08
2022-12-29T11:36:07.434Z,59.37
2022-12-29T11:38:39.396Z,58.87
2022-12-29T11:41:07.866Z,59.51
2022-12-29T11:43:39.174Z,59.36
2022-12-29T11:46:07.142Z,59.30
2022-12-29T11:48:40.800Z,59.15
2022-12-29T11:51:08.715Z,59.11
2022-12-29T11:53:47.928Z,59.32
2022-12-29T11:56:17.604Z,59.24
2022-12-29T11:58:44.731Z,59.12
2022-12-29T12:01:15.017Z,59.47
2022-12-29T12:03:48.979Z,58.93
2022-12-29T12:06:21.698Z,58.95
2022-12-29T12:08:55.675Z,59.02
2022-12-29T12:11:36.753Z,58.93
2022-12-29T12:14:13.113Z,59.00
2022-12-29T12:17:05.349Z,59.03
2022-12-29T12:19:59.386Z,58.98
2022-12-29T12:22:25.871Z,59.19
2022-12-29T12:25:00.750Z,59.05
2022-12-29T12:27:41.129Z,58.78
2022-12-29T12:30:23.412Z,59.17
2022-12-29T12:33:25.715Z,59.15
2022-12-29T12:36:16.326Z,58.69
2022-12-29T12:39:11.571Z,58.86
2022-12-29T12:41:56.792Z,58.61
2022-12-29T12:44:52.514Z,58.42
2022-12-29T12:47:43.156Z,58.29
2022-12-29T12:50:28.881Z,58.44
2022-12-29T12:53:10.944Z,58.25
2022-12-29T12:56:02.195Z,58.28
2022-12-29T12:58:46.994Z,58.32
2022-12-29T13:01:42.798Z,58.38
2022-12-29T13:04:37.673Z,58.57
2022-12-29T13:07:37.255Z,58.42
2022-12-29T13:10:23.411Z,57.88
2022-12-29T13:13:13.607Z,58.17
2022-12-29T13:15:58.325Z,57.78
2022-12-29T13:18:54.335Z,57.53
2022-12-29T13:21:39.147Z,57.48
2022-12-29T13:24:41.104Z,57.31
2022-12-29T13:27:37.745Z,57.58
2022-12-29T13:30:16.782Z,57.50
2022-12-29T13:33:05.867Z,57.45
2022-12-29T13:35:32.356Z,57.21
2022-12-29T13:38:11.474Z,57.67
2022-12-29T13:40:42.726Z,57.35
2022-12-29T13:43:10.280Z,57.34
2022-12-29T13:45:37.321Z,57.68
2022-12-29T13:48:16.274Z,57.84
2022-12-29T13:50:47.562Z,58.29
2022-12-29T13:53:31.821Z,58.58
2022-12-29T13:56:14.109Z,58.68
2022-12-29T13:59:41.584Z,58.81
2022-12-29T14:02:17.291Z,58.75
2022-12-29T14:04:59.175Z,58.78
2022-12-29T14:07:26.484Z,58.96
2022-12-29T14:09:56.009Z,58.94
2022-12-29T14:12:25.555Z,59.21
2022-12-29T14:14:52.355Z,59.37
2022-12-29T14:17:22.114Z,59.74
2022-12-29T14:19:54.507Z,59.56
2022-12-29T14:22:32.909Z,59.53
2022-12-29T14:25:00.192Z,59.58
2022-12-29T14:27:45.124Z,59.89
2022-12-29T14:31:06.836Z,59.56
2022-12-29T14:33:35.496Z,59.89
2022-12-29T14:36:21.997Z,59.93
2022-12-29T14:38:48.943Z,59.48
2022-12-29T14:41:38.770Z,59.88
2022-12-29T14:44:08.012Z,59.41
2022-12-29T14:46:49.882Z,59.48
2022-12-29T14:49:24.005Z,59.66
2022-12-29T14:51:53.724Z,59.82
2022-12-29T14:54:38.378Z,59.89
2022-12-29T14:57:14.082Z,59.83
2022-12-29T14:59:40.800Z,59.70
2022-12-29T15:02:19.756Z,59.72
2022-12-29T15:04:48.450Z,60.00
2022-12-29T15:07:16.384Z,59.98
2022-12-29T15:09:50.530Z,60.17
2022-12-29T15:12:37.883Z,59.98
2022-12-29T15:15:23.099Z,60.09
2022-12-29T15:17:49.899Z,60.09
2022-12-29T15:20:31.432Z,60.08
2022-12-29T15:23:09.873Z,60.05
2022-12-29T15:25:37.134Z,60.52
2022-12-29T15:28:07.581Z,60.32
2022-12-29T15:30:34.436Z,60.57
2022-12-29T15:33:01.058Z,60.08
2022-12-29T15:35:35.223Z,59.94
2022-12-29T15:38:14.702Z,60.19
2022-12-29T15:40:44.372Z,60.06
2022-12-29T15:43:16.981Z,59.93
2022-12-29T15:45:43.950Z,59.77
2022-12-29T15:48:22.423Z,59.68
2022-12-29T15:50:49.655Z,59.55
2022-12-29T15:53:29.360Z,59.43
2022-12-29T15:56:09.510Z,59.31
2022-12-29T15:58:48.600Z,59.21
2022-12-29T16:01:35.287Z,59.17
2022-12-29T16:04:07.618Z,59.26
2022-12-29T16:06:35.317Z,59.30
2022-12-29T16:09:16.117Z,59.33
2022-12-29T16:11:54.181Z,59.01
2022-12-29T16:14:29.395Z,59.17
2022-12-29T16:17:00.205Z,59.26
2022-12-29T16:19:37.630Z,58.86
2022-12-29T16:22:12.045Z,58.93
2022-12-29T16:24:41.033Z,59.12
2022-12-29T16:27:15.115Z,58.92
2022-12-29T16:29:41.808Z,58.96
2022-12-29T16:32:30.490Z,58.75
2022-12-29T16:35:14.766Z,58.83
2022-12-29T16:37:41.700Z,58.84
2022-12-29T16:40:26.937Z,58.54
2022-12-29T16:42:58.814Z,58.79
2022-12-29T16:45:47.261Z,58.61
2022-12-29T16:48:13.889Z,58.79
2022-12-29T16:50:43.317Z,58.51
2022-12-29T16:53:24.656Z,58.39
2022-12-29T16:55:53.652Z,58.47
2022-12-29T16:58:24.598Z,58.38
2022-12-29T17:00:55.570Z,58.29
2022-12-29T17:03:22.882Z,58.46
2022-12-29T17:05:54.163Z,58.42
2022-12-29T17:08:26.554Z,58.27
2022-12-29T17:11:15.027Z,58.36
2022-12-29T17:13:42.151Z,58.45
2022-12-29T17:16:10.879Z,58.38
2022-12-29T17:18:37.721Z,58.21
2022-12-29T17:21:04.351Z,58.06
2022-12-29T17:23:33.180Z,58.08
2022-12-29T17:26:00.217Z,58.36
2022-12-29T17:28:30.986Z,58.25
2022-12-29T17:31:07.465Z,58.36
2022-12-29T17:33:40.007Z,57.92
2022-12-29T17:36:06.783Z,58.16
2022-12-29T17:38:37.473Z,58.04
2022-12-29T17:41:04.268Z,57.94
2022-12-29T17:43:36.716Z,57.97
2022-12-29T17:46:07.271Z,58.12
2022-12-29T17:48:34.048Z,58.29
2022-12-29T17:51:00.970Z,58.09
2022-12-29T17:53:29.850Z,58.03
2022-12-29T17:55:56.643Z,57.77
2022-12-29T17:58:25.496Z,57.92
2022-12-29T18:00:57.812Z,57.77
2022-12-29T18:03:31.015Z,57.95
2022-12-29T18:05:58.025Z,57.58
2022-12-29T18:08:25.301Z,57.57
2022-12-29T18:10:54.768Z,57.68
2022-12-29T18:13:43.616Z,57.53
2022-12-29T18:16:13.830Z,57.90
2022-12-29T18:18:40.552Z,57.85
2022-12-29T18:21:07.493Z,57.86
2022-12-29T18:23:37.446Z,57.76
2022-12-29T18:26:15.560Z,57.94
2022-12-29T18:28:43.295Z,57.91
2022-12-29T18:31:35.365Z,57.95
2022-12-29T18:34:05.174Z,57.60
2022-12-29T18:36:31.704Z,58.05
2022-12-29T18:38:58.318Z,57.99
2022-12-29T18:41:32.330Z,57.91
2022-12-29T18:44:00.141Z,57.85
2022-12-29T18:46:27.396Z,57.82
2022-12-29T18:48:54.658Z,58.09
2022-12-29T18:51:25.160Z,58.18
2022-12-29T18:53:54.093Z,57.71
2022-12-29T18:56:22.500Z,57.94
2022-12-29T18:58:49.851Z,58.14
2022-12-29T19:01:24.420Z,58.05
2022-12-29T19:03:51.908Z,58.29
2022-12-29T19:06:19.394Z,57.99
2022-12-29T19:08:45.919Z,58.11
2022-12-29T19:11:12.637Z,58.04
2022-12-29T19:13:40.407Z,58.01
2022-12-29T19:16:08.982Z,58.20
2022-12-29T19:18:44.531Z,58.22
2022-12-29T19:21:14.037Z,58.09
2022-12-29T19:23:40.575Z,58.34
2022-12-29T19:26:07.170Z,58.34
2022-12-29T19:28:33.687Z,58.23
2022-12-29T19:31:02.667Z,58.42
2022-12-29T19:33:29.662Z,58.16
2022-12-29T19:36:01.458Z,58.37
2022-12-29T19:38:28.754Z,58.47
2022-12-29T19:40:55.408Z,58.61
2022-12-29T19:43:22.019Z,58.75
2022-12-29T19:45:48.533Z,58.59
2022-12-29T19:48:17.377Z,58.45
2022-12-29T19:50:44.788Z,58.61
2022-12-29T19:53:12.403Z,58.74
2022-12-29T19:55:46.610Z,58.41
2022-12-29T19:58:14.710Z,58.68
2022-12-29T20:00:43.645Z,58.72
2022-12-29T20:03:10.719Z,58.71
2022-12-29T20:05:38.664Z,58.62
2022-12-29T20:08:05.287Z,58.36
2022-12-29T20:10:32.025Z,58.58
2022-12-29T20:12:58.557Z,58.75
2022-12-29T20:15:25.113Z,58.54
2022-12-29T20:20:38.364Z,58.51
2022-12-29T20:23:04.818Z,58.39
2022-12-29T20:25:47.644Z,58.26
2022-12-29T20:28:16.012Z,58.14
2022-12-29T20:30:43.674Z,58.09
2022-12-29T20:33:10.651Z,58.38
2022-12-29T20:35:37.608Z,58.26
2022-12-29T20:38:05.127Z,58.25
2022-12-29T20:40:32.155Z,58.30
2022-12-29T20:42:58.778Z,58.23
2022-12-29T20:45:25.586Z,58.19
2022-12-29T20:47:52.439Z,58.40
2022-12-29T20:50:19.124Z,58.31
2022-12-29T20:52:46.815Z,58.20
2022-12-29T20:55:13.563Z,58.09
2022-12-29T20:58:13.997Z,58.11
2022-12-29T21:00:30.242Z,58.07
2022-12-29T21:02:58.009Z,58.26
2022-12-29T21:05:25.910Z,58.46
2022-12-29T21:07:53.895Z,58.19
2022-12-29T21:10:21.249Z,58.14
2022-12-29T21:12:48.534Z,58.23
2022-12-29T21:15:15.777Z,57.99
2022-12-29T21:17:43.622Z,57.97
2022-12-29T21:20:19.553Z,58.10
2022-12-29T21:22:47.609Z,58.10
2022-12-29T21:25:14.479Z,58.03
2022-12-29T21:27:44.200Z,58.04
2022-12-29T21:30:11.887Z,58.21
2022-12-29T21:32:39.154Z,58.14
2022-12-29T21:35:06.648Z,58.35
2022-12-29T21:37:33.250Z,58.02
2022-12-29T21:39:59.796Z,58.04
2022-12-29T21:42:28.831Z,58.03
2022-12-29T21:45:19.928Z,58.26
2022-12-29T21:48:05.587Z,58.08
2022-12-29T21:50:32.135Z,57.90
2022-12-29T21:52:58.692Z,58.38
2022-12-29T21:55:25.216Z,58.19
2022-12-29T21:58:10.080Z,58.39
2022-12-29T22:00:54.898Z,58.50
2022-12-29T22:03:39.922Z,58.25
2022-12-29T22:06:29.746Z,58.15
2022-12-29T22:09:14.897Z,58.15
2022-12-29T22:12:00.130Z,58.13
2022-12-29T22:14:26.702Z,58.18
2022-12-29T22:16:53.180Z,57.99
2022-12-29T22:19:19.685Z,58.37
2022-12-29T22:21:46.182Z,58.24
2022-12-29T22:24:12.813Z,58.45
2022-12-29T22:26:39.346Z,58.42
2022-12-29T22:29:05.841Z,58.28
2022-12-29T22:31:33.169Z,58.40
2022-12-29T22:34:02.162Z,58.36
2022-12-29T22:36:29.966Z,58.53
2022-12-29T22:38:56.713Z,58.18
2022-12-29T22:41:23.538Z,58.63
2022-12-29T22:43:50.114Z,58.41
2022-12-29T22:46:16.721Z,58.47
2022-12-29T22:48:43.306Z,58.23
2022-12-29T22:51:09.873Z,58.42
2022-12-29T22:53:36.422Z,58.48
2022-12-29T22:56:08.882Z,58.21
2022-12-29T22:58:39.187Z,58.27
2022-12-29T23:01:05.816Z,58.40
2022-12-29T23:03:32.507Z,58.23
2022-12-29T23:06:01.818Z,58.00
2022-12-29T23:08:31.439Z,58.33
2022-12-29T23:10:58.125Z,58.01
2022-12-29T23:13:24.708Z,58.17
2022-12-29T23:15:51.345Z,58.08
2022-12-29T23:18:17.959Z,58.28
2022-12-29T23:20:45.311Z,58.21
2022-12-29T23:23:11.979Z,58.17
2022-12-29T23:25:39.118Z,58.22
2022-12-29T23:28:07.878Z,58.00
2022-12-29T23:30:35.136Z,57.93
2022-12-29T23:33:01.708Z,58.13
2022-12-29T23:35:28.216Z,58.31
2022-12-29T23:37:54.714Z,58.07
2022-12-29T23:40:21.246Z,58.04
2022-12-29T23:42:47.762Z,57.99
2022-12-29T23:45:14.384Z,58.25
2022-12-29T23:47:40.931Z,58.01
2022-12-29T23:50:08.691Z,57.89
2022-12-29T23:52:35.322Z,58.01
2022-12-29T23:55:02.096Z,58.03
2022-12-29T23:57:28.606Z,58.25
2022-12-29T23:59:55.157Z,58.23
